createdAt,value
2023-05-13T00:00:51.750Z,88.30
2023-05-13T00:03:19.917Z,88.20
2023-05-13T00:05:48.174Z,88.20
2023-05-13T00:08:16.684Z,88.20
2023-05-13T00:10:44.814Z,88.20
2023-05-13T00:13:14.320Z,88.20
2023-05-13T00:15:42.418Z,88.20
2023-05-13T00:18:10.508Z,88.20
2023-05-13T00:20:38.748Z,88.20
2023-05-13T00:23:07.928Z,88.20
2023-05-13T00:25:36.089Z,88.10
2023-05-13T00:28:04.219Z,88.10
2023-05-13T00:30:33.741Z,88.10
2023-05-13T00:33:01.855Z,88.10
2023-05-13T00:35:29.920Z,88.10
2023-05-13T00:37:58.068Z,88.10
2023-05-13T00:40:26.278Z,88.10
2023-05-13T00:42:55.236Z,88.10
2023-05-13T00:45:23.372Z,88.10
2023-05-13T00:47:52.941Z,88.10
2023-05-13T00:50:21.197Z,88.10
2023-05-13T00:52:49.427Z,88.00
2023-05-13T00:55:17.502Z,88.00
2023-05-13T00:57:45.609Z,88.00
2023-05-13T01:00:14.712Z,88.00
2023-05-13T01:02:46.225Z,88.00
2023-05-13T01:05:19.518Z,88.00
2023-05-13T01:07:54.957Z,88.00
2023-05-13T01:10:28.440Z,88.00
2023-05-13T01:13:00.244Z,88.00
2023-05-13T01:15:28.741Z,87.90
2023-05-13T01:17:58.890Z,87.90
2023-05-13T01:20:28.565Z,87.90
2023-05-13T01:23:17.107Z,87.90
2023-05-13T01:25:45.394Z,87.90
2023-05-13T01:28:13.435Z,87.90
2023-05-13T01:30:41.565Z,87.90
2023-05-13T01:33:09.789Z,87.80
2023-05-13T01:35:37.972Z,87.80
2023-05-13T01:38:07.471Z,87.80
2023-05-13T01:40:43.080Z,87.80
2023-05-13T01:43:11.354Z,87.80
2023-05-13T01:45:39.452Z,87.80
2023-05-13T01:48:07.734Z,87.80
2023-05-13T01:50:35.988Z,87.70
2023-05-13T01:53:05.189Z,87.70
2023-05-13T01:55:34.656Z,87.70
2023-05-13T01:58:02.816Z,87.70
2023-05-13T02:00:30.929Z,87.70
2023-05-13T02:02:59.149Z,87.70
2023-05-13T02:05:27.351Z,87.70
2023-05-13T02:07:55.425Z,87.60
2023-05-13T02:10:23.728Z,87.60
2023-05-13T02:12:56.414Z,87.60
2023-05-13T02:15:24.517Z,87.60
2023-05-13T02:17:52.661Z,87.60
2023-05-13T02:20:21.328Z,87.60
2023-05-13T02:22:49.540Z,87.60
2023-05-13T02:25:17.775Z,87.60
2023-05-13T02:27:46.110Z,87.50
2023-05-13T02:30:16.053Z,87.50
2023-05-13T02:32:44.275Z,87.50
2023-05-13T02:35:17.273Z,87.50
2023-05-13T02:37:45.603Z,87.50
2023-05-13T02:40:14.468Z,87.50
2023-05-13T02:42:43.374Z,87.50
2023-05-13T02:45:15.328Z,87.40
2023-05-13T02:47:45.072Z,87.40
2023-05-13T02:50:13.494Z,87.40
2023-05-13T02:52:41.646Z,87.40
2023-05-13T02:55:10.667Z,87.30
2023-05-13T02:57:38.826Z,87.30
2023-05-13T03:00:08.123Z,87.30
2023-05-13T03:02:36.349Z,87.30
2023-05-13T03:05:06.604Z,87.30
2023-05-13T03:07:34.665Z,87.20
2023-05-13T03:10:02.728Z,87.20
2023-05-13T03:12:30.866Z,87.20
2023-05-13T03:14:59.205Z,87.20
2023-05-13T03:17:30.805Z,87.20
2023-05-13T03:20:01.719Z,87.10
2023-05-13T03:22:31.178Z,87.10
2023-05-13T03:24:59.612Z,87.10
2023-05-13T03:27:29.085Z,87.10
2023-05-13T03:29:57.119Z,87.00
2023-05-13T03:32:30.572Z,87.00
2023-05-13T03:35:01.000Z,87.00
2023-05-13T03:37:30.524Z,87.00
2023-05-13T03:39:58.693Z,87.00
2023-05-13T03:42:26.883Z,87.00
2023-05-13T03:44:57.058Z,86.90
2023-05-13T03:47:25.207Z,86.90
2023-05-13T03:49:53.447Z,86.90
2023-05-13T03:52:21.560Z,86.90
2023-05-13T03:54:51.045Z,86.90
2023-05-13T03:57:19.124Z,86.90
2023-05-13T03:59:47.177Z,86.80
2023-05-13T04:02:15.391Z,86.90
2023-05-13T04:04:43.524Z,86.90
2023-05-13T04:07:11.641Z,86.80
2023-05-13T04:09:40.333Z,86.80
2023-05-13T04:12:09.858Z,86.80
2023-05-13T04:14:38.015Z,86.80
2023-05-13T04:17:06.547Z,86.80
2023-05-13T04:19:34.889Z,86.70
2023-05-13T04:22:02.983Z,86.70
2023-05-13T04:24:31.118Z,86.70
2023-05-13T04:27:01.226Z,86.70
2023-05-13T04:29:30.951Z,86.70
2023-05-13T04:31:59.156Z,86.70
2023-05-13T04:34:27.419Z,86.70
2023-05-13T04:36:55.508Z,86.70
2023-05-13T04:39:23.593Z,86.70
2023-05-13T04:41:51.657Z,86.60
2023-05-13T04:44:19.832Z,86.70
2023-05-13T04:46:49.350Z,86.60
2023-05-13T04:49:17.439Z,86.60
2023-05-13T04:51:46.180Z,86.60
2023-05-13T04:54:14.736Z,86.60
2023-05-13T04:56:42.816Z,86.60
2023-05-13T04:59:10.959Z,86.60
2023-05-13T05:01:39.140Z,86.60
2023-05-13T05:04:08.733Z,86.60
2023-05-13T05:06:36.890Z,86.60
2023-05-13T05:09:05.105Z,86.60
2023-05-13T05:11:33.199Z,86.60
2023-05-13T05:14:01.320Z,86.60
2023-05-13T05:16:29.400Z,86.60
2023-05-13T05:18:57.529Z,86.60
2023-05-13T05:21:26.990Z,86.50
2023-05-13T05:23:55.036Z,86.50
2023-05-13T05:26:23.119Z,86.60
2023-05-13T05:28:51.212Z,86.50
2023-05-13T05:31:19.366Z,86.50
2023-05-13T05:33:47.518Z,86.60
2023-05-13T05:36:15.582Z,86.60
2023-05-13T05:38:44.980Z,86.50
2023-05-13T05:41:14.073Z,86.60
2023-05-13T05:43:42.182Z,86.50
2023-05-13T05:46:10.397Z,86.60
2023-05-13T05:48:38.441Z,86.50
2023-05-13T05:51:06.797Z,86.50
2023-05-13T05:53:37.679Z,86.60
2023-05-13T05:56:07.412Z,86.60
2023-05-13T05:58:36.042Z,86.60
2023-05-13T06:01:04.167Z,86.60
2023-05-13T06:03:32.320Z,86.60
2023-05-13T06:06:00.544Z,86.60
2023-05-13T06:08:30.472Z,86.60
2023-05-13T06:10:58.994Z,86.60
2023-05-13T06:13:28.603Z,86.60
2023-05-13T06:15:56.898Z,86.60
2023-05-13T06:18:27.804Z,86.60
2023-05-13T06:20:56.093Z,86.60
2023-05-13T06:23:24.108Z,86.60
2023-05-13T06:25:52.170Z,86.70
2023-05-13T06:28:20.236Z,86.70
2023-05-13T06:30:49.735Z,86.70
2023-05-13T06:33:17.882Z,86.70
2023-05-13T06:35:52.065Z,86.70
2023-05-13T06:38:20.168Z,86.70
2023-05-13T06:40:48.321Z,86.70
2023-05-13T06:43:16.568Z,86.70
2023-05-13T06:45:44.687Z,86.70
2023-05-13T06:48:14.591Z,86.70
2023-05-13T06:50:42.730Z,86.70
2023-05-13T06:53:11.779Z,86.70
2023-05-13T06:55:41.924Z,86.70
2023-05-13T06:58:10.170Z,86.70
2023-05-13T07:00:38.871Z,86.70
2023-05-13T07:03:07.059Z,86.70
2023-05-13T07:05:36.962Z,86.70
2023-05-13T07:08:06.961Z,86.70
2023-05-13T07:10:35.119Z,86.70
2023-05-13T07:13:11.704Z,86.70
2023-05-13T07:15:39.813Z,86.70
2023-05-13T07:18:08.025Z,86.70
2023-05-13T07:20:37.724Z,86.70
2023-05-13T07:23:05.828Z,86.70
2023-05-13T07:25:34.127Z,86.70
2023-05-13T07:28:02.539Z,86.70
2023-05-13T07:30:30.642Z,86.30
2023-05-13T07:32:58.801Z,86.30
2023-05-13T07:35:29.433Z,86.40
2023-05-13T07:37:58.893Z,86.30
2023-05-13T07:40:27.080Z,86.40
2023-05-13T07:42:55.210Z,86.40
2023-05-13T07:45:23.476Z,86.50
2023-05-13T07:47:51.717Z,86.30
2023-05-13T07:50:20.028Z,85.70
2023-05-13T07:52:49.092Z,85.60
2023-05-13T07:55:18.770Z,85.90
2023-05-13T07:57:46.872Z,85.50
2023-05-13T08:00:16.237Z,85.30
2023-05-13T08:02:44.487Z,85.40
2023-05-13T08:05:12.988Z,85.30
2023-05-13T08:07:41.123Z,85.20
2023-05-13T08:10:09.811Z,85.20
2023-05-13T08:12:40.429Z,85.10
2023-05-13T08:15:09.497Z,85.20
2023-05-13T08:17:37.710Z,85.10
2023-05-13T08:20:06.655Z,85.20
2023-05-13T08:22:34.796Z,85.30
2023-05-13T08:25:03.514Z,85.10
2023-05-13T08:27:31.665Z,85.30
2023-05-13T08:30:12.113Z,85.10
2023-05-13T08:32:40.213Z,85.30
2023-05-13T08:35:09.015Z,85.10
2023-05-13T08:37:37.088Z,85.10
2023-05-13T08:40:06.041Z,85.10
2023-05-13T08:42:34.420Z,85.00
2023-05-13T08:45:04.839Z,85.10
2023-05-13T08:47:37.262Z,85.10
2023-05-13T08:50:05.946Z,85.10
2023-05-13T08:52:35.422Z,85.00
2023-05-13T08:55:03.503Z,85.00
2023-05-13T08:57:31.777Z,85.00
2023-05-13T08:59:59.837Z,85.00
2023-05-13T09:02:29.407Z,85.00
2023-05-13T09:04:57.627Z,85.00
2023-05-13T09:07:25.774Z,85.00
2023-05-13T09:09:53.902Z,85.00
2023-05-13T09:12:43.879Z,85.00
2023-05-13T09:15:12.749Z,84.90
2023-05-13T09:17:44.079Z,84.90
2023-05-13T09:20:13.154Z,84.90
2023-05-13T09:22:47.303Z,84.90
2023-05-13T09:25:15.979Z,84.80
2023-05-13T09:27:45.126Z,84.80
2023-05-13T09:30:13.633Z,84.80
2023-05-13T09:32:43.226Z,84.80
2023-05-13T09:35:17.279Z,84.80
2023-05-13T09:37:49.191Z,84.80
2023-05-13T09:40:18.057Z,84.80
2023-05-13T09:42:46.498Z,84.80
2023-05-13T09:45:15.559Z,84.80
2023-05-13T09:47:45.103Z,84.80
2023-05-13T09:50:13.416Z,84.70
2023-05-13T09:52:44.622Z,84.70
2023-05-13T09:55:12.733Z,84.70
2023-05-13T09:57:40.913Z,84.70
2023-05-13T10:00:17.885Z,84.70
2023-05-13T10:02:54.540Z,84.70
2023-05-13T10:05:22.700Z,84.70
2023-05-13T10:07:50.848Z,84.70
2023-05-13T10:10:19.361Z,84.70
2023-05-13T10:12:47.499Z,84.60
2023-05-13T10:15:15.609Z,84.60
2023-05-13T10:17:44.936Z,84.60
2023-05-13T10:20:17.662Z,84.60
2023-05-13T10:22:45.732Z,84.60
2023-05-13T10:25:13.836Z,84.60
2023-05-13T10:27:41.967Z,84.60
2023-05-13T10:30:11.089Z,84.60
2023-05-13T10:32:40.054Z,84.60
2023-05-13T10:35:09.926Z,84.60
2023-05-13T10:38:01.619Z,84.50
2023-05-13T10:41:08.158Z,84.50
2023-05-13T10:43:36.702Z,84.50
2023-05-13T10:46:06.306Z,84.50
2023-05-13T10:48:43.198Z,84.50
2023-05-13T10:51:14.681Z,84.50
2023-05-13T10:53:48.270Z,84.50
2023-05-13T10:56:16.462Z,84.50
2023-05-13T10:58:44.607Z,84.50
2023-05-13T11:01:17.736Z,84.50
2023-05-13T11:03:53.284Z,84.50
2023-05-13T11:06:29.347Z,84.50
2023-05-13T11:08:58.828Z,84.50
2023-05-13T11:11:28.754Z,84.50
2023-05-13T11:13:57.681Z,84.60
2023-05-13T11:16:25.893Z,84.50
2023-05-13T11:18:54.200Z,84.50
2023-05-13T11:21:30.858Z,84.50
2023-05-13T11:24:01.853Z,84.50
2023-05-13T11:26:42.535Z,84.50
2023-05-13T11:29:10.632Z,84.50
2023-05-13T11:31:53.097Z,84.60
2023-05-13T11:34:21.343Z,84.50
2023-05-13T11:36:54.574Z,84.60
2023-05-13T11:39:26.509Z,84.60
2023-05-13T11:41:54.892Z,84.60
2023-05-13T11:44:23.717Z,84.60
2023-05-13T11:46:56.237Z,84.60
2023-05-13T11:49:40.365Z,84.60
2023-05-13T11:52:10.252Z,84.60
2023-05-13T11:54:49.779Z,84.60
2023-05-13T11:57:22.234Z,84.60
2023-05-13T11:59:58.256Z,84.60
2023-05-13T12:02:28.163Z,84.60
2023-05-13T12:05:04.509Z,84.60
2023-05-13T12:07:35.866Z,84.70
2023-05-13T12:10:06.360Z,84.70
2023-05-13T12:12:35.521Z,84.70
2023-05-13T12:15:04.615Z,84.70
2023-05-13T12:17:34.137Z,84.70
2023-05-13T12:20:09.823Z,84.70
2023-05-13T12:22:38.434Z,84.70
2023-05-13T12:25:51.287Z,84.70
2023-05-13T12:28:21.528Z,84.70
2023-05-13T12:30:53.673Z,84.70
2023-05-13T12:33:22.368Z,84.80
2023-05-13T12:35:51.860Z,84.80
2023-05-13T12:38:20.810Z,84.80
2023-05-13T12:40:49.168Z,84.80
2023-05-13T12:43:17.646Z,84.80
2023-05-13T12:45:48.020Z,84.80
2023-05-13T12:48:16.106Z,84.80
2023-05-13T12:50:44.187Z,84.80
2023-05-13T12:53:12.693Z,84.80
2023-05-13T12:55:52.045Z,84.80
2023-05-13T12:58:20.163Z,84.80
2023-05-13T13:00:49.707Z,84.90
2023-05-13T13:03:18.166Z,84.90
2023-05-13T13:05:46.812Z,84.90
2023-05-13T13:08:14.919Z,84.90
2023-05-13T13:10:42.995Z,84.90
2023-05-13T13:13:11.015Z,84.90
2023-05-13T13:15:39.492Z,84.90
2023-05-13T13:18:09.642Z,84.90
2023-05-13T13:20:37.725Z,84.90
2023-05-13T13:23:05.855Z,85.00
2023-05-13T13:25:33.978Z,85.00
2023-05-13T13:28:12.675Z,85.00
2023-05-13T13:30:46.334Z,85.00
2023-05-13T13:33:16.470Z,85.00
2023-05-13T13:35:44.865Z,85.00
2023-05-13T13:38:12.935Z,85.00
2023-05-13T13:40:41.164Z,85.00
2023-05-13T13:43:09.311Z,85.00
2023-05-13T13:45:37.867Z,85.00
2023-05-13T13:48:06.668Z,85.00
2023-05-13T13:50:36.189Z,85.00
2023-05-13T13:53:04.293Z,85.00
2023-05-13T13:55:32.407Z,85.00
2023-05-13T13:58:00.580Z,85.10
2023-05-13T14:00:29.132Z,85.10
2023-05-13T14:02:57.669Z,84.90
2023-05-13T14:05:25.834Z,85.10
2023-05-13T14:07:55.762Z,85.10
2023-05-13T14:10:24.115Z,85.10
2023-05-13T14:12:52.281Z,85.00
2023-05-13T14:15:20.377Z,85.10
2023-05-13T14:17:48.640Z,85.10
2023-05-13T14:20:20.823Z,85.00
2023-05-13T14:22:49.075Z,85.00
2023-05-13T14:25:21.643Z,85.00
2023-05-13T14:27:49.732Z,85.00
2023-05-13T14:30:17.835Z,85.00
2023-05-13T14:32:46.002Z,85.00
2023-05-13T14:35:14.580Z,85.00
2023-05-13T14:37:42.732Z,85.10
2023-05-13T14:40:11.473Z,85.00
2023-05-13T14:42:40.931Z,85.10
2023-05-13T14:45:13.137Z,85.10
2023-05-13T14:47:43.396Z,85.10
2023-05-13T14:50:12.570Z,85.00
2023-05-13T14:52:40.657Z,85.10
2023-05-13T14:55:09.272Z,85.10
2023-05-13T14:57:43.392Z,85.00
2023-05-13T15:00:12.557Z,85.10
2023-05-13T15:02:41.101Z,85.10
2023-05-13T15:05:09.893Z,85.10
2023-05-13T15:07:51.839Z,85.00
2023-05-13T15:10:20.068Z,85.10
2023-05-13T15:12:49.668Z,85.00
2023-05-13T15:15:17.846Z,85.00
2023-05-13T15:17:46.227Z,85.10
2023-05-13T15:20:14.419Z,85.00
2023-05-13T15:22:42.506Z,85.00
2023-05-13T15:25:10.844Z,85.00
2023-05-13T15:27:38.932Z,85.00
2023-05-13T15:30:09.447Z,85.00
2023-05-13T15:32:37.558Z,85.00
2023-05-13T15:35:06.479Z,85.00
2023-05-13T15:37:34.592Z,85.00
2023-05-13T15:40:02.697Z,85.00
2023-05-13T15:42:30.806Z,85.00
2023-05-13T15:44:58.886Z,85.00
2023-05-13T15:47:28.506Z,85.00
2023-05-13T15:49:56.696Z,85.00
2023-05-13T15:52:24.801Z,85.00
2023-05-13T15:54:53.041Z,85.00
2023-05-13T15:57:24.237Z,85.00
2023-05-13T15:59:52.372Z,85.00
2023-05-13T16:02:20.474Z,85.00
2023-05-13T16:04:49.998Z,85.00
2023-05-13T16:07:18.064Z,85.00
2023-05-13T16:09:46.158Z,84.90
2023-05-13T16:12:14.241Z,85.00
2023-05-13T16:14:56.214Z,84.90
2023-05-13T16:17:24.306Z,84.90
2023-05-13T16:19:54.034Z,85.00
2023-05-13T16:22:29.174Z,84.90
2023-05-13T16:24:59.985Z,84.90
2023-05-13T16:27:28.292Z,84.80
2023-05-13T16:29:56.442Z,84.80
2023-05-13T16:32:24.939Z,84.80
2023-05-13T16:34:54.799Z,84.80
2023-05-13T16:37:22.932Z,84.80
2023-05-13T16:39:50.991Z,84.80
2023-05-13T16:42:19.493Z,84.80
2023-05-13T16:44:47.798Z,84.80
2023-05-13T16:47:18.681Z,84.80
2023-05-13T16:49:49.872Z,84.80
2023-05-13T16:52:19.336Z,84.80
2023-05-13T16:54:47.441Z,84.80
2023-05-13T16:57:15.820Z,84.80
2023-05-13T16:59:43.882Z,84.80
2023-05-13T17:02:12.042Z,84.80
2023-05-13T17:04:40.174Z,84.80
2023-05-13T17:07:08.356Z,84.80
2023-05-13T17:09:37.857Z,84.80
2023-05-13T17:12:06.337Z,84.80
2023-05-13T17:14:34.529Z,84.80
2023-05-13T17:17:03.209Z,84.80
2023-05-13T17:19:31.400Z,84.80
2023-05-13T17:21:59.493Z,84.80
2023-05-13T17:24:29.372Z,84.80
2023-05-13T17:26:58.874Z,84.80
2023-05-13T17:29:27.078Z,84.80
2023-05-13T17:31:55.333Z,84.80
2023-05-13T17:34:23.960Z,84.80
2023-05-13T17:36:52.043Z,84.80
2023-05-13T17:39:20.162Z,84.80
2023-05-13T17:41:48.237Z,84.80
2023-05-13T17:44:20.052Z,84.80
2023-05-13T17:46:48.161Z,84.80
2023-05-13T17:49:16.492Z,84.70
2023-05-13T17:51:44.842Z,84.70
2023-05-13T17:54:14.052Z,84.70
2023-05-13T17:56:42.168Z,84.70
2023-05-13T17:59:10.348Z,84.70
2023-05-13T18:01:39.861Z,84.70
2023-05-13T18:04:11.978Z,84.70
2023-05-13T18:06:40.025Z,84.60
2023-05-13T18:09:08.096Z,84.60
2023-05-13T18:11:36.169Z,84.60
2023-05-13T18:14:04.299Z,84.60
2023-05-13T18:16:32.426Z,84.60
2023-05-13T18:19:02.045Z,84.60
2023-05-13T18:21:31.240Z,84.50
2023-05-13T18:23:59.325Z,84.60
2023-05-13T18:26:30.454Z,84.60
2023-05-13T18:28:58.746Z,84.50
2023-05-13T18:31:26.874Z,84.50
2023-05-13T18:33:55.018Z,84.50
2023-05-13T18:36:24.430Z,84.50
2023-05-13T18:38:52.479Z,84.50
2023-05-13T18:41:21.449Z,84.50
2023-05-13T18:43:49.799Z,84.50
2023-05-13T18:46:17.893Z,84.50
2023-05-13T18:48:46.513Z,84.50
2023-05-13T18:51:16.426Z,84.50
2023-05-13T18:53:46.630Z,84.50
2023-05-13T18:56:14.735Z,84.50
2023-05-13T18:58:48.269Z,84.50
2023-05-13T19:01:16.723Z,84.50
2023-05-13T19:03:44.951Z,84.50
2023-05-13T19:06:13.040Z,84.50
2023-05-13T19:08:41.108Z,84.50
2023-05-13T19:11:10.638Z,84.60
2023-05-13T19:13:46.729Z,84.70
2023-05-13T19:16:15.616Z,84.70
2023-05-13T19:18:43.819Z,84.70
2023-05-13T19:21:11.896Z,84.80
2023-05-13T19:23:40.049Z,84.80
2023-05-13T19:26:08.283Z,84.90
2023-05-13T19:28:38.122Z,84.90
2023-05-13T19:31:06.319Z,84.90
2023-05-13T19:33:36.988Z,85.00
2023-05-13T19:36:05.193Z,85.00
2023-05-13T19:38:33.330Z,85.00
2023-05-13T19:41:01.744Z,85.00
2023-05-13T19:43:29.902Z,85.10
2023-05-13T19:45:59.355Z,85.10
2023-05-13T19:48:29.644Z,85.10
2023-05-13T19:50:58.512Z,85.10
2023-05-13T19:53:26.702Z,85.20
2023-05-13T19:55:55.479Z,85.20
2023-05-13T19:58:23.570Z,85.20
2023-05-13T20:00:51.650Z,85.20
2023-05-13T20:03:21.290Z,85.20
2023-05-13T20:05:49.428Z,85.30
2023-05-13T20:08:18.012Z,85.30
2023-05-13T20:10:46.192Z,85.30
2023-05-13T20:13:14.288Z,85.30
2023-05-13T20:15:43.408Z,85.30
2023-05-13T20:18:11.465Z,85.30
2023-05-13T20:20:41.745Z,85.40
2023-05-13T20:23:09.943Z,85.40
2023-05-13T20:25:38.184Z,85.40
2023-05-13T20:28:06.764Z,85.40
2023-05-13T20:30:34.805Z,85.40
2023-05-13T20:33:03.004Z,85.40
2023-05-13T20:35:31.152Z,85.40
2023-05-13T20:38:01.948Z,85.40
2023-05-13T20:40:30.085Z,85.40
2023-05-13T20:43:01.244Z,85.50
2023-05-13T20:45:29.357Z,85.50
2023-05-13T20:47:59.281Z,85.50
2023-05-13T20:50:28.373Z,85.50
2023-05-13T20:52:56.462Z,85.50
2023-05-13T20:55:25.965Z,85.50
2023-05-13T20:57:54.027Z,85.50
2023-05-13T21:00:22.523Z,85.50
2023-05-13T21:02:52.019Z,85.50
2023-05-13T21:05:20.436Z,85.50
2023-05-13T21:07:48.609Z,85.60
2023-05-13T21:10:30.566Z,85.60
2023-05-13T21:13:01.184Z,85.60
2023-05-13T21:15:29.236Z,85.60
2023-05-13T21:17:57.434Z,85.60
2023-05-13T21:20:25.792Z,85.60
2023-05-13T21:22:53.956Z,85.60
2023-05-13T21:25:22.202Z,85.60
2023-05-13T21:27:50.455Z,85.60
2023-05-13T21:30:19.960Z,85.70
2023-05-13T21:32:48.139Z,85.70
2023-05-13T21:35:16.530Z,85.70
2023-05-13T21:37:47.124Z,85.70
2023-05-13T21:40:15.701Z,85.70
2023-05-13T21:42:43.768Z,85.60
2023-05-13T21:45:12.772Z,85.70
2023-05-13T21:47:42.398Z,85.70
2023-05-13T21:50:10.972Z,85.70
2023-05-13T21:52:39.726Z,85.70
2023-05-13T21:55:08.720Z,85.60
2023-05-13T21:57:36.796Z,85.60
2023-05-13T22:00:07.602Z,85.60
2023-05-13T22:02:35.913Z,85.60
2023-05-13T22:05:05.852Z,85.60
2023-05-13T22:07:33.888Z,85.60
2023-05-13T22:10:01.944Z,85.60
2023-05-13T22:12:29.989Z,85.60
2023-05-13T22:14:58.033Z,85.60
2023-05-13T22:17:26.153Z,85.60
2023-05-13T22:19:54.305Z,85.60
2023-05-13T22:22:23.787Z,85.50
2023-05-13T22:24:51.898Z,85.50
2023-05-13T22:27:19.942Z,85.50
2023-05-13T22:29:47.985Z,85.50
2023-05-13T22:35:05.787Z,85.50
2023-05-13T22:37:35.246Z,85.50
2023-05-13T22:40:07.057Z,85.50
2023-05-13T22:42:35.199Z,85.50
2023-05-13T22:45:03.608Z,85.50
2023-05-13T22:47:31.738Z,85.50
2023-05-13T22:49:59.879Z,85.50
2023-05-13T22:52:27.962Z,85.50
2023-05-13T22:54:57.501Z,85.50
2023-05-13T22:57:26.564Z,85.50
2023-05-13T22:59:54.668Z,85.50
2023-05-13T23:02:23.727Z,85.40
2023-05-13T23:04:52.387Z,85.40
2023-05-13T23:07:20.445Z,85.40
2023-05-13T23:09:48.614Z,85.40
2023-05-13T23:12:18.096Z,85.40
2023-05-13T23:14:46.152Z,85.40
2023-05-13T23:17:14.479Z,85.40
2023-05-13T23:19:42.617Z,85.40
2023-05-13T23:22:10.792Z,85.40
2023-05-13T23:24:38.902Z,85.40
2023-05-13T23:27:07.555Z,85.40
2023-05-13T23:29:37.051Z,85.40
2023-05-13T23:32:06.965Z,85.40
2023-05-13T23:34:35.389Z,85.40
2023-05-13T23:37:03.432Z,85.40
2023-05-13T23:39:31.465Z,85.40
2023-05-13T23:41:59.539Z,85.40
2023-05-13T23:44:27.625Z,85.40
2023-05-13T23:46:57.125Z,85.40
2023-05-13T23:49:25.234Z,85.40
2023-05-13T23:51:53.382Z,85.40
2023-05-13T23:54:21.461Z,85.40
2023-05-13T23:56:49.533Z,85.40
2023-05-13T23:59:17.618Z,85.30
